sensor_id;sensor_type;location;lat;lon;timestamp;pressure;altitude;pressure_sealevel;temperature;humidity
4022;BME280;2025;48.260;16.432;2022-09-03T00:01:40;99751.31;;;11.76;100.00
4022;BME280;2025;48.260;16.432;2022-09-03T00:04:15;99743.41;;;11.71;100.00
4022;BME280;2025;48.260;16.432;2022-09-03T00:06:49;99736.41;;;11.67;100.00
4022;BME280;2025;48.260;16.432;2022-09-03T00:09:22;99744.25;;;11.61;100.00
4022;BME280;2025;48.260;16.432;2022-09-03T00:11:54;99744.25;;;11.58;100.00
4022;BME280;2025;48.260;16.432;2022-09-03T00:14:33;99745.09;;;11.55;100.00
4022;BME280;2025;48.260;16.432;2022-09-03T00:17:06;99735.47;;;11.56;100.00
4022;BME280;2025;48.260;16.432;2022-09-03T00:19:40;99738.97;;;11.52;100.00
4022;BME280;2025;48.260;16.432;2022-09-03T00:22:14;99735.44;;;11.45;100.00
4022;BME280;2025;48.260;16.432;2022-09-03T00:24:43;99731.03;;;11.41;100.00
4022;BME280;2025;48.260;16.432;2022-09-03T00:27:14;99728.44;;;11.46;100.00
4022;BME280;2025;48.260;16.432;2022-09-03T00:29:45;99734.56;;;11.43;100.00
4022;BME280;2025;48.260;16.432;2022-09-03T00:32:18;99729.28;;;11.40;100.00
4022;BME280;2025;48.260;16.432;2022-09-03T00:34:49;99736.28;;;11.38;100.00
4022;BME280;2025;48.260;16.432;2022-09-03T00:37:18;99738.88;;;11.32;100.00
4022;BME280;2025;48.260;16.432;2022-09-03T00:39:45;99740.59;;;11.29;100.00
4022;BME280;2025;48.260;16.432;2022-09-03T00:42:23;99729.22;;;11.25;100.00
4022;BME280;2025;48.260;16.432;2022-09-03T00:45:02;99730.97;;;11.26;100.00
4022;BME280;2025;48.260;16.432;2022-09-03T00:47:43;99736.19;;;11.23;100.00
4022;BME280;2025;48.260;16.432;2022-09-03T00:50:20;99738.81;;;11.21;100.00
4022;BME280;2025;48.260;16.432;2022-09-03T00:53:02;99746.66;;;11.17;100.00
4022;BME280;2025;48.260;16.432;2022-09-03T00:55:40;99746.63;;;11.14;100.00
4022;BME280;2025;48.260;16.432;2022-09-03T00:58:36;99723.91;;;11.13;100.00
4022;BME280;2025;48.260;16.432;2022-09-03T01:01:14;99716.94;;;11.18;100.00
4022;BME280;2025;48.260;16.432;2022-09-03T01:03:48;99731.81;;;11.20;100.00
4022;BME280;2025;48.260;16.432;2022-09-03T01:06:23;99724.78;;;11.16;100.00
4022;BME280;2025;48.260;16.432;2022-09-03T01:09:07;99728.31;;;11.20;100.00
4022;BME280;2025;48.260;16.432;2022-09-03T01:11:42;99736.16;;;11.14;100.00
4022;BME280;2025;48.260;16.432;2022-09-03T01:14:24;99736.13;;;11.11;100.00
4022;BME280;2025;48.260;16.432;2022-09-03T01:17:00;99742.22;;;11.05;100.00
4022;BME280;2025;48.260;16.432;2022-09-03T01:19:50;99735.19;;;11.00;100.00
4022;BME280;2025;48.260;16.432;2022-09-03T01:22:40;99733.41;;;10.97;100.00
4022;BME280;2025;48.260;16.432;2022-09-03T01:25:25;99747.38;;;10.95;100.00
4022;BME280;2025;48.260;16.432;2022-09-03T01:28:09;99748.22;;;10.90;100.00
4022;BME280;2025;48.260;16.432;2022-09-03T01:30:41;99748.22;;;10.90;100.00
4022;BME280;2025;48.260;16.432;2022-09-03T01:33:20;99741.25;;;10.92;100.00
4022;BME280;2025;48.260;16.432;2022-09-03T01:35:57;99741.25;;;10.91;100.00
4022;BME280;2025;48.260;16.432;2022-09-03T01:38:32;99746.44;;;10.86;100.00
4022;BME280;2025;48.260;16.432;2022-09-03T01:41:11;99741.19;;;10.85;100.00
4022;BME280;2025;48.260;16.432;2022-09-03T01:44:10;99728.09;;;10.85;100.00
4022;BME280;2025;48.260;16.432;2022-09-03T01:46:42;99723.66;;;10.78;100.00
4022;BME280;2025;48.260;16.432;2022-09-03T01:49:17;99730.66;;;10.77;100.00
4022;BME280;2025;48.260;16.432;2022-09-03T01:51:49;99725.41;;;10.77;100.00
4022;BME280;2025;48.260;16.432;2022-09-03T02:00:18;99728.81;;;10.64;100.00
4022;BME280;2025;48.260;16.432;2022-09-03T02:02:47;99721.84;;;10.66;100.00
4022;BME280;2025;48.260;16.432;2022-09-03T02:05:18;99718.38;;;10.70;100.00
4022;BME280;2025;48.260;16.432;2022-09-03T02:07:50;99705.28;;;10.70;100.00
4022;BME280;2025;48.260;16.432;2022-09-03T02:10:23;99728.84;;;10.70;100.00
4022;BME280;2025;48.260;16.432;2022-09-03T02:12:56;99720.94;;;10.61;100.00
4022;BME280;2025;48.260;16.432;2022-09-03T02:15:27;99716.56;;;10.60;100.00
4022;BME280;2025;48.260;16.432;2022-09-03T02:17:58;99699.97;;;10.59;100.00
4022;BME280;2025;48.260;16.432;2022-09-03T02:20:28;99714.78;;;10.57;100.00
4022;BME280;2025;48.260;16.432;2022-09-03T02:22:56;99716.56;;;10.60;100.00
4022;BME280;2025;48.260;16.432;2022-09-03T02:25:29;99725.25;;;10.57;100.00
4022;BME280;2025;48.260;16.432;2022-09-03T02:27:58;99703.41;;;10.55;100.00
4022;BME280;2025;48.260;16.432;2022-09-03T02:30:27;99719.13;;;10.55;100.00
4022;BME280;2025;48.260;16.432;2022-09-03T02:32:54;99711.28;;;10.57;100.00
4022;BME280;2025;48.260;16.432;2022-09-03T02:35:21;99710.41;;;10.56;100.00
4022;BME280;2025;48.260;16.432;2022-09-03T02:37:48;99704.25;;;10.50;100.00
4022;BME280;2025;48.260;16.432;2022-09-03T02:40:15;99705.94;;;10.43;100.00
4022;BME280;2025;48.260;16.432;2022-09-03T02:42:43;99710.22;;;10.37;100.00
4022;BME280;2025;48.260;16.432;2022-09-03T02:45:19;99718.03;;;10.34;100.00
4022;BME280;2025;48.260;16.432;2022-09-03T02:47:54;99716.28;;;10.33;100.00
4022;BME280;2025;48.260;16.432;2022-09-03T02:50:21;99720.63;;;10.31;100.00
4022;BME280;2025;48.260;16.432;2022-09-03T02:52:48;99720.63;;;10.31;100.00
4022;BME280;2025;48.260;16.432;2022-09-03T02:55:16;99717.13;;;10.30;100.00
4022;BME280;2025;48.260;16.432;2022-09-03T02:57:44;99702.28;;;10.29;100.00
4022;BME280;2025;48.260;16.432;2022-09-03T03:00:12;99696.22;;;10.35;100.00
4022;BME280;2025;48.260;16.432;2022-09-03T03:02:39;99705.81;;;10.33;100.00
4022;BME280;2025;48.260;16.432;2022-09-03T03:05:08;99705.78;;;10.28;100.00
4022;BME280;2025;48.260;16.432;2022-09-03T03:07:42;99683.94;;;10.26;100.00
4022;BME280;2025;48.260;16.432;2022-09-03T03:10:09;99691.81;;;10.29;100.00
4022;BME280;2025;48.260;16.432;2022-09-03T03:12:37;99697.06;;;10.29;100.00
4022;BME280;2025;48.260;16.432;2022-09-03T03:15:05;99696.19;;;10.28;100.00
4022;BME280;2025;48.260;16.432;2022-09-03T03:17:32;99687.41;;;10.25;100.00
4022;BME280;2025;48.260;16.432;2022-09-03T03:19:59;99703.97;;;10.21;100.00
4022;BME280;2025;48.260;16.432;2022-09-03T03:22:27;99705.66;;;10.17;100.00
4022;BME280;2025;48.260;16.432;2022-09-03T03:24:54;99682.06;;;10.16;100.00
4022;BME280;2025;48.260;16.432;2022-09-03T03:27:22;99685.56;;;10.16;100.00
4022;BME280;2025;48.260;16.432;2022-09-03T03:29:49;99691.63;;;10.11;100.00
4022;BME280;2025;48.260;16.432;2022-09-03T03:32:16;99688.13;;;10.09;100.00
4022;BME280;2025;48.260;16.432;2022-09-03T03:34:43;99680.25;;;10.07;100.00
4022;BME280;2025;48.260;16.432;2022-09-03T03:37:10;99679.34;;;10.05;100.00
4022;BME280;2025;48.260;16.432;2022-09-03T03:39:39;99687.19;;;10.04;100.00
4022;BME280;2025;48.260;16.432;2022-09-03T03:42:06;99684.56;;;10.02;100.00
4022;BME280;2025;48.260;16.432;2022-09-03T03:44:33;99687.19;;;10.02;100.00
4022;BME280;2025;48.260;16.432;2022-09-03T03:47:01;99688.03;;;10.01;100.00
4022;BME280;2025;48.260;16.432;2022-09-03T03:49:30;99685.41;;;10.01;100.00
4022;BME280;2025;48.260;16.432;2022-09-03T03:51:57;99682.81;;;10.01;100.00
4022;BME280;2025;48.260;16.432;2022-09-03T03:54:24;99670.59;;;10.03;100.00
4022;BME280;2025;48.260;16.432;2022-09-03T03:56:52;99681.06;;;10.03;100.00
4022;BME280;2025;48.260;16.432;2022-09-03T03:59:19;99694.13;;;10.00;100.00
4022;BME280;2025;48.260;16.432;2022-09-03T04:01:47;99701.06;;;9.95;100.00
4022;BME280;2025;48.260;16.432;2022-09-03T04:04:15;99697.53;;;9.91;100.00
4022;BME280;2025;48.260;16.432;2022-09-03T04:06:42;99697.53;;;9.91;100.00
4022;BME280;2025;48.260;16.432;2022-09-03T04:09:09;99704.50;;;9.89;100.00
4022;BME280;2025;48.260;16.432;2022-09-03T04:11:36;99702.75;;;9.90;100.00
4022;BME280;2025;48.260;16.432;2022-09-03T04:14:05;99695.78;;;9.89;100.00
4022;BME280;2025;48.260;16.432;2022-09-03T04:16:31;99699.22;;;9.86;100.00
4022;BME280;2025;48.260;16.432;2022-09-03T04:18:58;99684.38;;;9.85;100.00
4022;BME280;2025;48.260;16.432;2022-09-03T04:21:27;99675.72;;;9.91;100.00
4022;BME280;2025;48.260;16.432;2022-09-03T04:23:54;99690.56;;;9.92;100.00
4022;BME280;2025;48.260;16.432;2022-09-03T04:26:25;99690.56;;;9.90;100.00
4022;BME280;2025;48.260;16.432;2022-09-03T04:28:52;99684.41;;;9.87;100.00
4022;BME280;2025;48.260;16.432;2022-09-03T04:31:21;99674.91;;;9.95;100.00
4022;BME280;2025;48.260;16.432;2022-09-03T04:33:48;99681.00;;;9.97;100.00
4022;BME280;2025;48.260;16.432;2022-09-03T04:36:17;99677.56;;;10.00;100.00
4022;BME280;2025;48.260;16.432;2022-09-03T04:38:45;99686.28;;;10.00;100.00
4022;BME280;2025;48.260;16.432;2022-09-03T04:41:14;99688.91;;;10.02;100.00
4022;BME280;2025;48.260;16.432;2022-09-03T04:43:42;99688.06;;;10.04;100.00
4022;BME280;2025;48.260;16.432;2022-09-03T04:46:12;99684.63;;;10.08;100.00
4022;BME280;2025;48.260;16.432;2022-09-03T04:48:41;99686.41;;;10.12;100.00
4022;BME280;2025;48.260;16.432;2022-09-03T04:51:09;99689.06;;;10.17;100.00
4022;BME280;2025;48.260;16.432;2022-09-03T04:53:39;99680.41;;;10.22;100.00
4022;BME280;2025;48.260;16.432;2022-09-03T04:56:11;99682.22;;;10.31;100.00
4022;BME280;2025;48.260;16.432;2022-09-03T04:58:39;99687.53;;;10.37;100.00
4022;BME280;2025;48.260;16.432;2022-09-03T05:01:08;99708.69;;;10.58;100.00
4022;BME280;2025;48.260;16.432;2022-09-03T05:03:35;99694.69;;;10.56;100.00
4022;BME280;2025;48.260;16.432;2022-09-03T05:06:04;99703.50;;;10.66;100.00
4022;BME280;2025;48.260;16.432;2022-09-03T05:08:32;99746.50;;;10.96;100.00
4022;BME280;2025;48.260;16.432;2022-09-03T05:11:02;99732.56;;;11.00;100.00
4022;BME280;2025;48.260;16.432;2022-09-03T05:13:29;99773.84;;;11.31;100.00
4022;BME280;2025;48.260;16.432;2022-09-03T05:15:59;99760.78;;;11.40;100.00
4022;BME280;2025;48.260;16.432;2022-09-03T05:18:26;99780.97;;;11.55;100.00
4022;BME280;2025;48.260;16.432;2022-09-03T05:20:57;99776.59;;;11.58;100.00
4022;BME280;2025;48.260;16.432;2022-09-03T05:23:27;99779.31;;;11.75;100.00
4022;BME280;2025;48.260;16.432;2022-09-03T05:25:55;99775.88;;;11.87;100.00
4022;BME280;2025;48.260;16.432;2022-09-03T05:28:23;99776.78;;;11.97;100.00
4022;BME280;2025;48.260;16.432;2022-09-03T05:31:02;99774.19;;;12.09;100.00
4022;BME280;2025;48.260;16.432;2022-09-03T05:33:32;99789.16;;;12.30;100.00
4022;BME280;2025;48.260;16.432;2022-09-03T05:36:00;99802.34;;;12.57;100.00
4022;BME280;2025;48.260;16.432;2022-09-03T05:38:29;99797.09;;;12.71;100.00
4022;BME280;2025;48.260;16.432;2022-09-03T05:40:57;99800.63;;;12.88;100.00
4022;BME280;2025;48.260;16.432;2022-09-03T05:43:25;99801.50;;;13.04;100.00
4022;BME280;2025;48.260;16.432;2022-09-03T05:45:56;99807.63;;;13.23;100.00
4022;BME280;2025;48.260;16.432;2022-09-03T05:48:24;99801.47;;;13.36;100.00
4022;BME280;2025;48.260;16.432;2022-09-03T05:50:58;99798.84;;;13.36;100.00
4022;BME280;2025;48.260;16.432;2022-09-03T05:53:25;99805.81;;;13.60;100.00
4022;BME280;2025;48.260;16.432;2022-09-03T05:55:57;99790.84;;;13.71;100.00
4022;BME280;2025;48.260;16.432;2022-09-03T05:58:25;99798.69;;;13.92;100.00
4022;BME280;2025;48.260;16.432;2022-09-03T06:00:55;99796.03;;;14.01;100.00
4022;BME280;2025;48.260;16.432;2022-09-03T06:03:22;99793.34;;;14.07;100.00
4022;BME280;2025;48.260;16.432;2022-09-03T06:05:50;99792.38;;;14.25;100.00
4022;BME280;2025;48.260;16.432;2022-09-03T06:08:18;99799.41;;;14.28;100.00
4022;BME280;2025;48.260;16.432;2022-09-03T06:10:45;99802.00;;;14.32;100.00
4022;BME280;2025;48.260;16.432;2022-09-03T06:13:13;99801.06;;;14.50;100.00
4022;BME280;2025;48.260;16.432;2022-09-03T06:15:40;99808.84;;;14.65;100.00
4022;BME280;2025;48.260;16.432;2022-09-03T06:18:07;99811.38;;;14.81;100.00
4022;BME280;2025;48.260;16.432;2022-09-03T06:20:34;99808.69;;;14.88;100.00
4022;BME280;2025;48.260;16.432;2022-09-03T06:23:01;99813.00;;;14.98;100.00
4022;BME280;2025;48.260;16.432;2022-09-03T06:25:28;99804.97;;;15.11;100.00
4022;BME280;2025;48.260;16.432;2022-09-03T06:27:56;99789.00;;;15.23;100.00
4022;BME280;2025;48.260;16.432;2022-09-03T06:30:24;99796.91;;;15.24;100.00
4022;BME280;2025;48.260;16.432;2022-09-03T06:32:54;99793.44;;;15.19;100.00
4022;BME280;2025;48.260;16.432;2022-09-03T06:35:24;99799.53;;;15.27;100.00
4022;BME280;2025;48.260;16.432;2022-09-03T06:37:55;99800.22;;;15.45;100.00
4022;BME280;2025;48.260;16.432;2022-09-03T06:40:24;99806.34;;;15.50;100.00
4022;BME280;2025;48.260;16.432;2022-09-03T06:42:57;99805.38;;;15.60;100.00
4022;BME280;2025;48.260;16.432;2022-09-03T06:45:28;99800.13;;;15.55;100.00
4022;BME280;2025;48.260;16.432;2022-09-03T06:47:55;99798.38;;;15.53;100.00
4022;BME280;2025;48.260;16.432;2022-09-03T06:50:23;99792.78;;;15.86;100.00
4022;BME280;2025;48.260;16.432;2022-09-03T06:52:51;99813.84;;;15.92;100.00
4022;BME280;2025;48.260;16.432;2022-09-03T06:55:20;99804.09;;;15.96;100.00
4022;BME280;2025;48.260;16.432;2022-09-03T06:57:47;99798.78;;;15.99;100.00
4022;BME280;2025;48.260;16.432;2022-09-03T07:00:15;99797.16;;;15.87;100.00
4022;BME280;2025;48.260;16.432;2022-09-03T07:02:44;99800.41;;;16.11;100.00
4022;BME280;2025;48.260;16.432;2022-09-03T07:05:13;99799.38;;;16.21;100.00
4022;BME280;2025;48.260;16.432;2022-09-03T07:07:40;99804.50;;;16.33;100.00
4022;BME280;2025;48.260;16.432;2022-09-03T07:10:09;99798.06;;;16.51;100.00
4022;BME280;2025;48.260;16.432;2022-09-03T07:12:38;99811.06;;;16.67;100.00
4022;BME280;2025;48.260;16.432;2022-09-03T07:15:06;99809.19;;;16.74;100.00
4022;BME280;2025;48.260;16.432;2022-09-03T07:17:33;99795.06;;;16.77;100.00
4022;BME280;2025;48.260;16.432;2022-09-03T07:20:02;99808.13;;;16.86;100.00
4022;BME280;2025;48.260;16.432;2022-09-03T07:22:31;99801.91;;;16.90;100.00
4022;BME280;2025;48.260;16.432;2022-09-03T07:24:58;99801.50;;;17.13;100.00
4022;BME280;2025;48.260;16.432;2022-09-03T07:27:26;99790.78;;;17.20;100.00
4022;BME280;2025;48.260;16.432;2022-09-03T07:29:53;99796.72;;;17.36;100.00
4022;BME280;2025;48.260;16.432;2022-09-03T07:32:20;99796.63;;;17.41;100.00
4022;BME280;2025;48.260;16.432;2022-09-03T07:34:50;99802.41;;;17.61;100.00
4022;BME280;2025;48.260;16.432;2022-09-03T07:37:34;99801.59;;;17.57;100.00
4022;BME280;2025;48.260;16.432;2022-09-03T07:40:03;99803.75;;;17.85;100.00
4022;BME280;2025;48.260;16.432;2022-09-03T07:42:30;99796.38;;;17.99;100.00
4022;BME280;2025;48.260;16.432;2022-09-03T07:44:57;99798.75;;;18.13;100.00
4022;BME280;2025;48.260;16.432;2022-09-03T07:47:24;99807.31;;;18.25;100.00
4022;BME280;2025;48.260;16.432;2022-09-03T07:49:54;99794.00;;;18.27;100.00
4022;BME280;2025;48.260;16.432;2022-09-03T07:52:20;99787.28;;;18.51;100.00
4022;BME280;2025;48.260;16.432;2022-09-03T07:54:51;99791.44;;;18.63;100.00
4022;BME280;2025;48.260;16.432;2022-09-03T07:57:18;99797.84;;;18.91;100.00
4022;BME280;2025;48.260;16.432;2022-09-03T07:59:48;99790.75;;;18.91;100.00
4022;BME280;2025;48.260;16.432;2022-09-03T08:02:15;99790.56;;;18.99;100.00
4022;BME280;2025;48.260;16.432;2022-09-03T08:04:54;99790.41;;;19.05;100.00
4022;BME280;2025;48.260;16.432;2022-09-03T08:07:21;99789.97;;;19.23;100.00
4022;BME280;2025;48.260;16.432;2022-09-03T08:09:48;99794.94;;;19.36;100.00
4022;BME280;2025;48.260;16.432;2022-09-03T08:12:17;99802.47;;;19.54;100.00
4022;BME280;2025;48.260;16.432;2022-09-03T08:14:44;99792.31;;;19.68;100.00
4022;BME280;2025;48.260;16.432;2022-09-03T08:17:11;99792.81;;;19.82;100.00
4022;BME280;2025;48.260;16.432;2022-09-03T08:19:38;99778.19;;;19.97;100.00
4022;BME280;2025;48.260;16.432;2022-09-03T08:22:06;99782.91;;;20.17;100.00
4022;BME280;2025;48.260;16.432;2022-09-03T08:24:35;99783.47;;;20.28;100.00
4022;BME280;2025;48.260;16.432;2022-09-03T08:27:02;99790.53;;;20.29;100.00
4022;BME280;2025;48.260;16.432;2022-09-03T08:29:31;99797.16;;;20.45;100.00
4022;BME280;2025;48.260;16.432;2022-09-03T08:31:58;99795.56;;;20.38;100.00
4022;BME280;2025;48.260;16.432;2022-09-03T08:34:27;99796.03;;;20.53;100.00
4022;BME280;2025;48.260;16.432;2022-09-03T08:36:55;99787.53;;;20.69;100.00
4022;BME280;2025;48.260;16.432;2022-09-03T08:39:28;99792.44;;;20.83;100.00
4022;BME280;2025;48.260;16.432;2022-09-03T08:42:25;99781.22;;;21.00;100.00
4022;BME280;2025;48.260;16.432;2022-09-03T08:45:02;99784.84;;;20.97;100.00
4022;BME280;2025;48.260;16.432;2022-09-03T08:47:40;99778.09;;;21.13;100.00
4022;BME280;2025;48.260;16.432;2022-09-03T08:50:21;99764.63;;;21.18;100.00
4022;BME280;2025;48.260;16.432;2022-09-03T08:53:02;99771.78;;;21.42;100.00
4022;BME280;2025;48.260;16.432;2022-09-03T08:55:50;99766.78;;;21.58;100.00
4022;BME280;2025;48.260;16.432;2022-09-03T08:58:22;99765.34;;;21.48;100.00
4022;BME280;2025;48.260;16.432;2022-09-03T09:00:58;99749.75;;;21.37;100.00
4022;BME280;2025;48.260;16.432;2022-09-03T09:03:41;99769.91;;;21.69;100.00
4022;BME280;2025;48.260;16.432;2022-09-03T09:06:18;99772.72;;;21.90;100.00
4022;BME280;2025;48.260;16.432;2022-09-03T09:09:17;99781.75;;;21.86;100.00
4022;BME280;2025;48.260;16.432;2022-09-03T09:12:13;99785.59;;;21.54;100.00
4022;BME280;2025;48.260;16.432;2022-09-03T09:14:45;99777.75;;;21.74;100.00
4022;BME280;2025;48.260;16.432;2022-09-03T09:17:29;99771.66;;;21.70;100.00
4022;BME280;2025;48.260;16.432;2022-09-03T09:20:28;99770.59;;;21.51;100.00
4022;BME280;2025;48.260;16.432;2022-09-03T09:23:02;99777.44;;;21.58;100.00
4022;BME280;2025;48.260;16.432;2022-09-03T09:25:33;99777.97;;;21.43;100.00
4022;BME280;2025;48.260;16.432;2022-09-03T09:28:14;99772.97;;;21.34;100.00
4022;BME280;2025;48.260;16.432;2022-09-03T09:30:43;99768.22;;;21.67;100.00
4022;BME280;2025;48.260;16.432;2022-09-03T09:33:13;99759.94;;;21.74;100.00
4022;BME280;2025;48.260;16.432;2022-09-03T09:35:40;99761.19;;;21.89;100.00
4022;BME280;2025;48.260;16.432;2022-09-03T09:38:08;99760.13;;;21.93;100.00
4022;BME280;2025;48.260;16.432;2022-09-03T09:40:37;99769.50;;;22.05;100.00
4022;BME280;2025;48.260;16.432;2022-09-03T09:43:05;99758.72;;;22.08;100.00
4022;BME280;2025;48.260;16.432;2022-09-03T09:45:33;99760.78;;;22.23;100.00
4022;BME280;2025;48.260;16.432;2022-09-03T09:48:01;99758.16;;;21.98;100.00
4022;BME280;2025;48.260;16.432;2022-09-03T09:50:34;99760.09;;;22.18;100.00
4022;BME280;2025;48.260;16.432;2022-09-03T09:53:01;99755.41;;;22.47;100.00
4022;BME280;2025;48.260;16.432;2022-09-03T09:55:32;99751.53;;;22.10;100.00
4022;BME280;2025;48.260;16.432;2022-09-03T09:58:05;99744.41;;;22.32;100.00
4022;BME280;2025;48.260;16.432;2022-09-03T10:00:35;99745.34;;;22.53;100.00
4022;BME280;2025;48.260;16.432;2022-09-03T10:03:09;99749.19;;;22.46;100.00
4022;BME280;2025;48.260;16.432;2022-09-03T10:05:39;99748.69;;;22.82;100.00
4022;BME280;2025;48.260;16.432;2022-09-03T10:08:18;99742.22;;;22.87;100.00
4022;BME280;2025;48.260;16.432;2022-09-03T10:10:48;99737.03;;;23.04;100.00
4022;BME280;2025;48.260;16.432;2022-09-03T10:13:18;99740.34;;;23.91;100.00
4022;BME280;2025;48.260;16.432;2022-09-03T10:19:10;99744.28;;;24.59;100.00
4022;BME280;2025;48.260;16.432;2022-09-03T10:21:44;99740.66;;;25.13;100.00
4022;BME280;2025;48.260;16.432;2022-09-03T10:24:27;99744.59;;;25.91;100.00
4022;BME280;2025;48.260;16.432;2022-09-03T10:26:56;99744.50;;;26.26;93.15
4022;BME280;2025;48.260;16.432;2022-09-03T10:29:24;99747.59;;;25.52;99.02
4022;BME280;2025;48.260;16.432;2022-09-03T10:32:02;99746.47;;;24.87;97.64
4022;BME280;2025;48.260;16.432;2022-09-03T10:34:38;99752.72;;;24.33;100.00
4022;BME280;2025;48.260;16.432;2022-09-03T10:37:20;99744.13;;;25.33;99.74
4022;BME280;2025;48.260;16.432;2022-09-03T10:39:59;99746.41;;;25.40;100.00
4022;BME280;2025;48.260;16.432;2022-09-03T10:42:40;99745.31;;;25.27;100.00
4022;BME280;2025;48.260;16.432;2022-09-03T10:45:18;99739.31;;;25.22;97.73
4022;BME280;2025;48.260;16.432;2022-09-03T10:48:12;99734.78;;;25.74;100.00
4022;BME280;2025;48.260;16.432;2022-09-03T10:50:46;99729.09;;;26.61;91.42
4022;BME280;2025;48.260;16.432;2022-09-03T10:53:26;99723.09;;;26.08;88.51
4022;BME280;2025;48.260;16.432;2022-09-03T10:56:00;99718.72;;;27.00;86.69
4022;BME280;2025;48.260;16.432;2022-09-03T10:58:39;99719.69;;;26.99;87.70
4022;BME280;2025;48.260;16.432;2022-09-03T11:01:17;99733.88;;;26.40;84.59
4022;BME280;2025;48.260;16.432;2022-09-03T11:03:48;99735.41;;;26.28;89.38
4022;BME280;2025;48.260;16.432;2022-09-03T11:06:23;99729.19;;;24.75;94.22
4022;BME280;2025;48.260;16.432;2022-09-03T11:08:57;99732.47;;;24.63;99.95
4022;BME280;2025;48.260;16.432;2022-09-03T11:11:30;99719.13;;;24.24;100.00
4022;BME280;2025;48.260;16.432;2022-09-03T11:14:01;99715.97;;;23.97;100.00
4022;BME280;2025;48.260;16.432;2022-09-03T11:16:37;99726.19;;;24.81;100.00
4022;BME280;2025;48.260;16.432;2022-09-03T11:19:08;99717.69;;;25.42;98.07
4022;BME280;2025;48.260;16.432;2022-09-03T11:21:37;99709.63;;;25.59;94.36
4022;BME280;2025;48.260;16.432;2022-09-03T11:24:11;99708.03;;;25.73;96.30
4022;BME280;2025;48.260;16.432;2022-09-03T11:26:40;99710.63;;;26.23;89.82
4022;BME280;2025;48.260;16.432;2022-09-03T11:29:11;99715.47;;;26.01;91.56
4022;BME280;2025;48.260;16.432;2022-09-03T11:31:53;99707.41;;;25.68;86.68
4022;BME280;2025;48.260;16.432;2022-09-03T11:34:29;99707.09;;;25.06;92.36
4022;BME280;2025;48.260;16.432;2022-09-03T11:37:15;99707.50;;;25.66;88.09
4022;BME280;2025;48.260;16.432;2022-09-03T11:39:53;99707.69;;;26.28;91.34
4022;BME280;2025;48.260;16.432;2022-09-03T11:42:27;99711.22;;;27.35;92.63
4022;BME280;2025;48.260;16.432;2022-09-03T11:45:10;99707.38;;;27.25;79.77
4022;BME280;2025;48.260;16.432;2022-09-03T11:47:40;99698.59;;;26.62;80.74
4022;BME280;2025;48.260;16.432;2022-09-03T11:50:15;99705.81;;;26.91;87.55
4022;BME280;2025;48.260;16.432;2022-09-03T11:52:46;99694.31;;;25.62;87.01
4022;BME280;2025;48.260;16.432;2022-09-03T11:55:28;99696.81;;;25.65;88.78
4022;BME280;2025;48.260;16.432;2022-09-03T11:57:57;99696.69;;;26.94;94.04
4022;BME280;2025;48.260;16.432;2022-09-03T12:00:24;99693.78;;;26.82;75.99
4022;BME280;2025;48.260;16.432;2022-09-03T12:02:54;99687.25;;;26.41;78.02
4022;BME280;2025;48.260;16.432;2022-09-03T12:05:30;99684.06;;;25.85;82.32
4022;BME280;2025;48.260;16.432;2022-09-03T12:08:18;99687.44;;;26.38;81.10
4022;BME280;2025;48.260;16.432;2022-09-03T12:10:56;99702.13;;;27.08;84.23
4022;BME280;2025;48.260;16.432;2022-09-03T12:13:41;99690.72;;;26.59;77.72
4022;BME280;2025;48.260;16.432;2022-09-03T12:16:29;99695.81;;;26.16;82.25
4022;BME280;2025;48.260;16.432;2022-09-03T12:19:03;99701.47;;;26.89;81.57
4022;BME280;2025;48.260;16.432;2022-09-03T12:21:37;99700.75;;;26.24;80.95
4022;BME280;2025;48.260;16.432;2022-09-03T12:24:05;99705.53;;;25.70;83.93
4022;BME280;2025;48.260;16.432;2022-09-03T12:26:40;99696.44;;;26.52;91.62
4022;BME280;2025;48.260;16.432;2022-09-03T12:29:19;99696.63;;;26.34;78.01
4022;BME280;2025;48.260;16.432;2022-09-03T12:31:47;99695.44;;;25.40;84.11
4022;BME280;2025;48.260;16.432;2022-09-03T12:34:18;99693.19;;;25.33;89.86
4022;BME280;2025;48.260;16.432;2022-09-03T12:36:46;99689.44;;;25.52;84.06
4022;BME280;2025;48.260;16.432;2022-09-03T12:39:15;99690.72;;;25.45;86.29
4022;BME280;2025;48.260;16.432;2022-09-03T12:42:00;99687.25;;;26.09;84.28
4022;BME280;2025;48.260;16.432;2022-09-03T12:44:29;99687.63;;;26.35;83.52
4022;BME280;2025;48.260;16.432;2022-09-03T12:47:04;99678.81;;;27.08;79.04
4022;BME280;2025;48.260;16.432;2022-09-03T12:49:35;99682.38;;;26.93;71.05
4022;BME280;2025;48.260;16.432;2022-09-03T12:52:08;99689.41;;;27.26;76.83
4022;BME280;2025;48.260;16.432;2022-09-03T12:54:41;99677.06;;;27.66;71.54
4022;BME280;2025;48.260;16.432;2022-09-03T12:57:18;99682.03;;;27.58;72.59
4022;BME280;2025;48.260;16.432;2022-09-03T12:59:47;99675.78;;;27.43;76.21
4022;BME280;2025;48.260;16.432;2022-09-03T13:02:22;99674.22;;;27.25;69.78
4022;BME280;2025;48.260;16.432;2022-09-03T13:04:51;99681.06;;;27.59;71.07
4022;BME280;2025;48.260;16.432;2022-09-03T13:07:23;99669.72;;;27.54;76.31
4022;BME280;2025;48.260;16.432;2022-09-03T13:10:00;99661.53;;;27.27;70.98
4022;BME280;2025;48.260;16.432;2022-09-03T13:12:32;99666.69;;;26.56;70.92
4022;BME280;2025;48.260;16.432;2022-09-03T13:15:06;99671.44;;;26.66;69.51
4022;BME280;2025;48.260;16.432;2022-09-03T13:17:47;99663.63;;;26.77;74.52
4022;BME280;2025;48.260;16.432;2022-09-03T13:20:28;99668.50;;;26.71;70.52
4022;BME280;2025;48.260;16.432;2022-09-03T13:23:13;99665.22;;;26.66;72.05
4022;BME280;2025;48.260;16.432;2022-09-03T13:25:52;99660.50;;;26.69;72.96
4022;BME280;2025;48.260;16.432;2022-09-03T13:28:33;99656.94;;;26.39;70.95
4022;BME280;2025;48.260;16.432;2022-09-03T13:31:10;99653.94;;;26.89;81.08
4022;BME280;2025;48.260;16.432;2022-09-03T13:33:48;99653.00;;;26.90;68.06
4022;BME280;2025;48.260;16.432;2022-09-03T13:36:19;99651.44;;;26.86;73.60
4022;BME280;2025;48.260;16.432;2022-09-03T13:38:52;99655.22;;;26.38;71.18